AEE7XP LGRP-LGAV
Flight info
| Callsign | AEE7XP |
|---|---|
| Flight time | 0h 43m |
| Altitude | 28000 |
| Route | CODIC UL995 VARIX |
| Aircraft | A21N/M-SDE2E3FGHIJ1RWXY/LB1 |
Departure
| Time | 2026-05-07 16:53 |
|---|---|
| Airport | Rhodes International Airport "Diagoras" (LGRP) |
Arrival
| Time | 2026-05-07 17:36 |
|---|---|
| Airport | Athens Eleftherios Venizelos International Airport (LGAV) |
| Time | Latitude | Longitude | Altitude | Speed | Heading |
|---|---|---|---|---|---|
| 2026-05-07 16:25 | 36.40314 | 28.08916 | 33 ft | 0 kts | 159° |
| 2026-05-07 16:44 | 36.40315 | 28.08916 | 33 ft | 1 kts | 159° |
| 2026-05-07 16:44 | 36.40328 | 28.08910 | 33 ft | 3 kts | 160° |
| 2026-05-07 16:44 | 36.40347 | 28.08902 | 33 ft | 3 kts | 161° |
| 2026-05-07 16:44 | 36.40365 | 28.08894 | 33 ft | 3 kts | 160° |
| 2026-05-07 16:45 | 36.40383 | 28.08884 | 34 ft | 3 kts | 143° |
| 2026-05-07 16:45 | 36.40396 | 28.08867 | 34 ft | 3 kts | 116° |
| 2026-05-07 16:45 | 36.40402 | 28.08844 | 34 ft | 3 kts | 98° |
| 2026-05-07 16:45 | 36.40403 | 28.08832 | 33 ft | 1 kts | 96° |
| 2026-05-07 16:46 | 36.40404 | 28.08830 | 33 ft | 0 kts | 96° |
| 2026-05-07 16:48 | 36.40402 | 28.08852 | 34 ft | 4 kts | 96° |
| 2026-05-07 16:48 | 36.40397 | 28.08901 | 34 ft | 7 kts | 95° |
| 2026-05-07 16:49 | 36.40397 | 28.08969 | 34 ft | 9 kts | 83° |
| 2026-05-07 16:49 | 36.40414 | 28.09056 | 33 ft | 12 kts | 70° |
| 2026-05-07 16:49 | 36.40445 | 28.09159 | 33 ft | 14 kts | 69° |
| 2026-05-07 16:49 | 36.40481 | 28.09279 | 34 ft | 16 kts | 69° |
| 2026-05-07 16:50 | 36.40558 | 28.09383 | 34 ft | 18 kts | 36° |
| 2026-05-07 16:50 | 36.40620 | 28.09523 | 34 ft | 20 kts | 70° |
| 2026-05-07 16:50 | 36.40668 | 28.09687 | 34 ft | 21 kts | 70° |
| 2026-05-07 16:50 | 36.40720 | 28.09866 | 33 ft | 23 kts | 70° |
| 2026-05-07 16:51 | 36.40775 | 28.10058 | 33 ft | 24 kts | 70° |
| 2026-05-07 16:51 | 36.40834 | 28.10262 | 33 ft | 26 kts | 70° |
| 2026-05-07 16:51 | 36.40880 | 28.10413 | 34 ft | 17 kts | 56° |
| 2026-05-07 16:51 | 36.40980 | 28.10393 | 32 ft | 18 kts | 304° |
| 2026-05-07 16:52 | 36.41020 | 28.10302 | 32 ft | 8 kts | 295° |
| 2026-05-07 16:52 | 36.40996 | 28.10180 | 33 ft | 35 kts | 251° |
| 2026-05-07 16:52 | 36.40816 | 28.09562 | 34 ft | 114 kts | 250° |
| 2026-05-07 16:52 | 36.40479 | 28.08413 | 154 ft | 157 kts | 251° |
| 2026-05-07 16:53 | 36.40152 | 28.07114 | 874 ft | 157 kts | 256° |
| 2026-05-07 16:53 | 36.40067 | 28.05764 | 1533 ft | 160 kts | 270° |
| 2026-05-07 16:53 | 36.40021 | 28.04309 | 2061 ft | 179 kts | 265° |
| 2026-05-07 16:53 | 36.39867 | 28.02676 | 2596 ft | 200 kts | 265° |
| 2026-05-07 16:54 | 36.39721 | 28.00847 | 2993 ft | 230 kts | 265° |
| 2026-05-07 16:54 | 36.39566 | 27.98752 | 3532 ft | 254 kts | 266° |
| 2026-05-07 16:54 | 36.39407 | 27.96520 | 4259 ft | 267 kts | 266° |
| 2026-05-07 16:54 | 36.39286 | 27.94186 | 5150 ft | 273 kts | 273° |
| 2026-05-07 16:55 | 36.39463 | 27.92636 | 5750 ft | 275 kts | 285° |
| 2026-05-07 16:55 | 36.40156 | 27.90421 | 6655 ft | 278 kts | 297° |
| 2026-05-07 16:55 | 36.41269 | 27.87521 | 7870 ft | 281 kts | 297° |
| 2026-05-07 16:55 | 36.41823 | 27.86058 | 8503 ft | 282 kts | 297° |
| 2026-05-07 16:56 | 36.42653 | 27.83830 | 9480 ft | 282 kts | 296° |
| 2026-05-07 16:56 | 36.43474 | 27.81599 | 10369 ft | 286 kts | 296° |
| 2026-05-07 16:56 | 36.45226 | 27.76772 | 11045 ft | 329 kts | 295° |
| 2026-05-07 16:57 | 36.46173 | 27.74139 | 11551 ft | 341 kts | 295° |
| 2026-05-07 16:57 | 36.47141 | 27.71434 | 12371 ft | 344 kts | 295° |
| 2026-05-07 16:57 | 36.48112 | 27.68693 | 13237 ft | 346 kts | 295° |
| 2026-05-07 16:57 | 36.49092 | 27.65944 | 14095 ft | 348 kts | 295° |
| 2026-05-07 16:58 | 36.50068 | 27.63200 | 14859 ft | 350 kts | 295° |
| 2026-05-07 16:58 | 36.51048 | 27.60448 | 15604 ft | 353 kts | 295° |
| 2026-05-07 16:58 | 36.52042 | 27.57640 | 16351 ft | 355 kts | 294° |
| 2026-05-07 16:58 | 36.53045 | 27.54807 | 17090 ft | 358 kts | 294° |
| 2026-05-07 16:59 | 36.54056 | 27.51959 | 17821 ft | 361 kts | 294° |
| 2026-05-07 16:59 | 36.55057 | 27.49127 | 18526 ft | 364 kts | 294° |
| 2026-05-07 16:59 | 36.56079 | 27.46217 | 19130 ft | 367 kts | 294° |
| 2026-05-07 16:59 | 36.57109 | 27.43288 | 19713 ft | 371 kts | 294° |
| 2026-05-07 17:00 | 36.58137 | 27.40368 | 20282 ft | 374 kts | 294° |
| 2026-05-07 17:00 | 36.59187 | 27.37375 | 20870 ft | 378 kts | 294° |
| 2026-05-07 17:00 | 36.60250 | 27.34361 | 21450 ft | 381 kts | 294° |
| 2026-05-07 17:00 | 36.61317 | 27.31319 | 22017 ft | 385 kts | 294° |
| 2026-05-07 17:01 | 36.62389 | 27.28264 | 22571 ft | 388 kts | 294° |
| 2026-05-07 17:01 | 36.63463 | 27.25193 | 23114 ft | 392 kts | 294° |
| 2026-05-07 17:01 | 36.64562 | 27.22048 | 23659 ft | 395 kts | 294° |
| 2026-05-07 17:01 | 36.65654 | 27.18928 | 24121 ft | 398 kts | 294° |
| 2026-05-07 17:02 | 36.66762 | 27.15754 | 24638 ft | 399 kts | 294° |
| 2026-05-07 17:02 | 36.67863 | 27.12600 | 25171 ft | 399 kts | 294° |
| 2026-05-07 17:02 | 36.68972 | 27.09420 | 25703 ft | 400 kts | 294° |
| 2026-05-07 17:02 | 36.70084 | 27.06237 | 26222 ft | 400 kts | 294° |
| 2026-05-07 17:03 | 36.71198 | 27.03052 | 26721 ft | 401 kts | 294° |
| 2026-05-07 17:03 | 36.72303 | 26.99879 | 27205 ft | 402 kts | 295° |
| 2026-05-07 17:03 | 36.73417 | 26.96672 | 27682 ft | 403 kts | 295° |
| 2026-05-07 17:03 | 36.74531 | 26.93456 | 28161 ft | 404 kts | 295° |
| 2026-05-07 17:04 | 36.75641 | 26.90246 | 28737 ft | 402 kts | 295° |
| 2026-05-07 17:04 | 36.76731 | 26.87090 | 29404 ft | 397 kts | 295° |
| 2026-05-07 17:04 | 36.77820 | 26.83931 | 30053 ft | 393 kts | 295° |
| 2026-05-07 17:04 | 36.78897 | 26.80795 | 30515 ft | 392 kts | 295° |
| 2026-05-07 17:05 | 36.79974 | 26.77668 | 30897 ft | 390 kts | 295° |
| 2026-05-07 17:05 | 36.81033 | 26.74586 | 31266 ft | 389 kts | 295° |
| 2026-05-07 17:05 | 36.82103 | 26.71469 | 31636 ft | 388 kts | 295° |
| 2026-05-07 17:05 | 36.83173 | 26.68371 | 32000 ft | 387 kts | 295° |
| 2026-05-07 17:06 | 36.84217 | 26.65330 | 32155 ft | 386 kts | 294° |
| 2026-05-07 17:06 | 36.85277 | 26.62237 | 32172 ft | 386 kts | 294° |
| 2026-05-07 17:06 | 36.87401 | 26.56041 | 32146 ft | 386 kts | 294° |
| 2026-05-07 17:07 | 36.89495 | 26.49932 | 32146 ft | 384 kts | 295° |
| 2026-05-07 17:07 | 36.91593 | 26.43772 | 32152 ft | 384 kts | 294° |
| 2026-05-07 17:08 | 36.93666 | 26.37651 | 32149 ft | 383 kts | 294° |
| 2026-05-07 17:08 | 36.95758 | 26.31490 | 32152 ft | 384 kts | 294° |
| 2026-05-07 17:09 | 36.98205 | 26.25613 | 32157 ft | 383 kts | 306° |
| 2026-05-07 17:09 | 37.01356 | 26.20308 | 32172 ft | 374 kts | 306° |
| 2026-05-07 17:10 | 37.04455 | 26.15068 | 32150 ft | 375 kts | 306° |
| 2026-05-07 17:10 | 37.07534 | 26.09830 | 32151 ft | 375 kts | 306° |
| 2026-05-07 17:11 | 37.10632 | 26.04554 | 32151 ft | 375 kts | 306° |
| 2026-05-07 17:11 | 37.13709 | 25.99308 | 32151 ft | 375 kts | 306° |
| 2026-05-07 17:12 | 37.16806 | 25.94022 | 32147 ft | 375 kts | 306° |
| 2026-05-07 17:12 | 37.19883 | 25.88751 | 32150 ft | 376 kts | 306° |
| 2026-05-07 17:13 | 37.22979 | 25.83432 | 32152 ft | 376 kts | 306° |
| 2026-05-07 17:13 | 37.26061 | 25.78137 | 32151 ft | 376 kts | 306° |
| 2026-05-07 17:14 | 37.29129 | 25.72860 | 32145 ft | 376 kts | 306° |
| 2026-05-07 17:14 | 37.32223 | 25.67524 | 32145 ft | 376 kts | 305° |
| 2026-05-07 17:15 | 37.35286 | 25.62233 | 32139 ft | 377 kts | 305° |
| 2026-05-07 17:15 | 37.38374 | 25.56888 | 32154 ft | 374 kts | 305° |
| 2026-05-07 17:16 | 37.41404 | 25.51645 | 31729 ft | 366 kts | 305° |
| 2026-05-07 17:16 | 37.42909 | 25.49031 | 30738 ft | 372 kts | 305° |
| 2026-05-07 17:16 | 37.44413 | 25.46415 | 29930 ft | 373 kts | 305° |
| 2026-05-07 17:17 | 37.45941 | 25.43764 | 29149 ft | 371 kts | 305° |
| 2026-05-07 17:17 | 37.47449 | 25.41141 | 28405 ft | 368 kts | 305° |
| 2026-05-07 17:17 | 37.48932 | 25.38558 | 27666 ft | 366 kts | 305° |
| 2026-05-07 17:17 | 37.50429 | 25.35947 | 26943 ft | 365 kts | 305° |
| 2026-05-07 17:18 | 37.51916 | 25.33354 | 26233 ft | 364 kts | 305° |
| 2026-05-07 17:18 | 37.53398 | 25.30773 | 25534 ft | 363 kts | 305° |
| 2026-05-07 17:18 | 37.54878 | 25.28192 | 24858 ft | 362 kts | 305° |
| 2026-05-07 17:18 | 37.56343 | 25.25636 | 24194 ft | 362 kts | 305° |
| 2026-05-07 17:19 | 37.57793 | 25.23041 | 23508 ft | 362 kts | 303° |
| 2026-05-07 17:19 | 37.59195 | 25.20404 | 22802 ft | 360 kts | 303° |
| 2026-05-07 17:19 | 37.60566 | 25.17818 | 22163 ft | 357 kts | 303° |
| 2026-05-07 17:19 | 37.61943 | 25.15217 | 21546 ft | 354 kts | 302° |
| 2026-05-07 17:20 | 37.63308 | 25.12633 | 20945 ft | 351 kts | 303° |
| 2026-05-07 17:20 | 37.64669 | 25.10067 | 20356 ft | 349 kts | 302° |
| 2026-05-07 17:20 | 37.66016 | 25.07528 | 19785 ft | 346 kts | 302° |
| 2026-05-07 17:20 | 37.67338 | 25.05037 | 19230 ft | 343 kts | 302° |
| 2026-05-07 17:21 | 37.68662 | 25.02540 | 18680 ft | 341 kts | 302° |
| 2026-05-07 17:21 | 37.69985 | 25.00045 | 18080 ft | 339 kts | 302° |
| 2026-05-07 17:21 | 37.71292 | 24.97570 | 17457 ft | 336 kts | 302° |
| 2026-05-07 17:21 | 37.72579 | 24.95146 | 16874 ft | 334 kts | 302° |
| 2026-05-07 17:22 | 37.73875 | 24.92707 | 16300 ft | 332 kts | 302° |
| 2026-05-07 17:22 | 37.75149 | 24.90304 | 15776 ft | 331 kts | 303° |
| 2026-05-07 17:22 | 37.76428 | 24.87885 | 15274 ft | 329 kts | 302° |
| 2026-05-07 17:22 | 37.77689 | 24.85498 | 14796 ft | 327 kts | 303° |
| 2026-05-07 17:23 | 37.78959 | 24.83090 | 14386 ft | 326 kts | 303° |
| 2026-05-07 17:23 | 37.80217 | 24.80701 | 14016 ft | 325 kts | 303° |
| 2026-05-07 17:23 | 37.81453 | 24.78354 | 13637 ft | 324 kts | 303° |
| 2026-05-07 17:23 | 37.82702 | 24.75981 | 13247 ft | 323 kts | 303° |
| 2026-05-07 17:24 | 37.83948 | 24.73611 | 12862 ft | 322 kts | 303° |
| 2026-05-07 17:24 | 37.85194 | 24.71237 | 12480 ft | 321 kts | 303° |
| 2026-05-07 17:24 | 37.86418 | 24.68906 | 12101 ft | 321 kts | 303° |
| 2026-05-07 17:24 | 37.87655 | 24.66550 | 11732 ft | 320 kts | 303° |
| 2026-05-07 17:25 | 37.88876 | 24.64221 | 11367 ft | 319 kts | 303° |
| 2026-05-07 17:25 | 37.90106 | 24.61872 | 11011 ft | 318 kts | 303° |
| 2026-05-07 17:25 | 37.91307 | 24.59578 | 10643 ft | 310 kts | 303° |
| 2026-05-07 17:25 | 37.92493 | 24.57313 | 10287 ft | 304 kts | 303° |
| 2026-05-07 17:26 | 37.93653 | 24.55092 | 9917 ft | 297 kts | 303° |
| 2026-05-07 17:26 | 37.94772 | 24.52949 | 9520 ft | 292 kts | 302° |
| 2026-05-07 17:26 | 37.95884 | 24.50819 | 9139 ft | 287 kts | 302° |
| 2026-05-07 17:26 | 37.96980 | 24.48718 | 8761 ft | 283 kts | 302° |
| 2026-05-07 17:27 | 37.98060 | 24.46644 | 8389 ft | 280 kts | 302° |
| 2026-05-07 17:27 | 37.99115 | 24.44615 | 8018 ft | 278 kts | 302° |
| 2026-05-07 17:27 | 38.00178 | 24.42567 | 7653 ft | 278 kts | 302° |
| 2026-05-07 17:27 | 38.01242 | 24.40520 | 7289 ft | 277 kts | 302° |
| 2026-05-07 17:28 | 38.02227 | 24.38420 | 6922 ft | 276 kts | 297° |
| 2026-05-07 17:28 | 38.03081 | 24.36285 | 6575 ft | 273 kts | 295° |
| 2026-05-07 17:28 | 38.03934 | 24.34134 | 6210 ft | 271 kts | 295° |
| 2026-05-07 17:28 | 38.04787 | 24.32008 | 5837 ft | 268 kts | 295° |
| 2026-05-07 17:29 | 38.05632 | 24.29912 | 5455 ft | 265 kts | 295° |
| 2026-05-07 17:29 | 38.06447 | 24.27856 | 5092 ft | 261 kts | 290° |
| 2026-05-07 17:29 | 38.07055 | 24.25703 | 4737 ft | 257 kts | 286° |
| 2026-05-07 17:29 | 38.07587 | 24.23553 | 4445 ft | 252 kts | 285° |
| 2026-05-07 17:30 | 38.08118 | 24.21463 | 4181 ft | 246 kts | 285° |
| 2026-05-07 17:30 | 38.08642 | 24.19420 | 3956 ft | 238 kts | 283° |
| 2026-05-07 17:30 | 38.08814 | 24.17417 | 3794 ft | 227 kts | 267° |
| 2026-05-07 17:30 | 38.08769 | 24.15420 | 3657 ft | 225 kts | 265° |
| 2026-05-07 17:31 | 38.08715 | 24.13436 | 3532 ft | 224 kts | 265° |
| 2026-05-07 17:31 | 38.08652 | 24.11458 | 3409 ft | 224 kts | 265° |
| 2026-05-07 17:31 | 38.08576 | 24.09486 | 3277 ft | 217 kts | 259° |
| 2026-05-07 17:31 | 38.08110 | 24.07773 | 3127 ft | 201 kts | 237° |
| 2026-05-07 17:32 | 38.07250 | 24.06405 | 2996 ft | 201 kts | 224° |
| 2026-05-07 17:32 | 38.06214 | 24.05283 | 2949 ft | 185 kts | 215° |
| 2026-05-07 17:32 | 38.05196 | 24.04342 | 2871 ft | 181 kts | 217° |
| 2026-05-07 17:32 | 38.04532 | 24.03715 | 2735 ft | 176 kts | 217° |
| 2026-05-07 17:33 | 38.03261 | 24.02500 | 2405 ft | 166 kts | 217° |
| 2026-05-07 17:33 | 38.02372 | 24.01648 | 2173 ft | 158 kts | 216° |
| 2026-05-07 17:33 | 38.01519 | 24.00833 | 1966 ft | 150 kts | 216° |
| 2026-05-07 17:33 | 38.00692 | 24.00043 | 1795 ft | 148 kts | 216° |
| 2026-05-07 17:34 | 37.99925 | 23.99310 | 1622 ft | 131 kts | 215° |
| 2026-05-07 17:34 | 37.99200 | 23.98614 | 1422 ft | 130 kts | 216° |
| 2026-05-07 17:34 | 37.98479 | 23.97925 | 1271 ft | 131 kts | 216° |
| 2026-05-07 17:34 | 37.97761 | 23.97236 | 1088 ft | 129 kts | 217° |
| 2026-05-07 17:35 | 37.97048 | 23.96557 | 919 ft | 128 kts | 218° |
| 2026-05-07 17:35 | 37.96339 | 23.95895 | 723 ft | 125 kts | 219° |
| 2026-05-07 17:35 | 37.95647 | 23.95217 | 544 ft | 127 kts | 218° |
| 2026-05-07 17:35 | 37.94938 | 23.94548 | 397 ft | 128 kts | 218° |
| 2026-05-07 17:36 | 37.94243 | 23.93887 | 309 ft | 117 kts | 219° |
| 2026-05-07 17:36 | 37.93734 | 23.93398 | 298 ft | 63 kts | 217° |
| 2026-05-07 17:36 | 37.93510 | 23.93199 | 297 ft | 19 kts | 206° |
| 2026-05-07 17:36 | 37.93380 | 23.93147 | 298 ft | 21 kts | 189° |
| 2026-05-07 17:37 | 37.93273 | 23.93140 | 302 ft | 14 kts | 146° |
| 2026-05-07 17:37 | 37.93292 | 23.93256 | 304 ft | 17 kts | 48° |
| 2026-05-07 17:37 | 37.93391 | 23.93349 | 305 ft | 19 kts | 35° |
| 2026-05-07 17:37 | 37.93404 | 23.93489 | 305 ft | 21 kts | 128° |
| 2026-05-07 17:38 | 37.93313 | 23.93641 | 307 ft | 23 kts | 127° |
| 2026-05-07 17:38 | 37.93279 | 23.93698 | 306 ft | 8 kts | 127° |
| 2026-05-07 17:38 | 37.93241 | 23.93762 | 307 ft | 10 kts | 127° |
| 2026-05-07 17:38 | 37.93193 | 23.93843 | 306 ft | 13 kts | 127° |
| 2026-05-07 17:39 | 37.93134 | 23.93941 | 307 ft | 15 kts | 127° |